sensor_id;sensor_type;location;lat;lon;timestamp;temperature;humidity
36292;DHT22;22327;51.208;6.418;2023-04-03T00:01:09;6.20;94.20
36292;DHT22;22327;51.208;6.418;2023-04-03T00:03:34;6.10;94.20
36292;DHT22;22327;51.208;6.418;2023-04-03T00:06:01;6.10;94.20
36292;DHT22;22327;51.208;6.418;2023-04-03T00:08:26;6.10;94.30
36292;DHT22;22327;51.208;6.418;2023-04-03T00:10:52;6.10;94.30
36292;DHT22;22327;51.208;6.418;2023-04-03T00:13:18;6.10;94.30
36292;DHT22;22327;51.208;6.418;2023-04-03T00:15:43;6.10;94.20
36292;DHT22;22327;51.208;6.418;2023-04-03T00:18:09;6.10;94.30
36292;DHT22;22327;51.208;6.418;2023-04-03T00:20:35;6.10;94.30
36292;DHT22;22327;51.208;6.418;2023-04-03T00:23:01;6.10;94.30
36292;DHT22;22327;51.208;6.418;2023-04-03T00:25:27;6.10;94.20
36292;DHT22;22327;51.208;6.418;2023-04-03T00:27:52;6.10;94.20
36292;DHT22;22327;51.208;6.418;2023-04-03T00:30:20;6.00;94.20
36292;DHT22;22327;51.208;6.418;2023-04-03T00:32:48;6.00;94.30
36292;DHT22;22327;51.208;6.418;2023-04-03T00:35:14;6.00;94.40
36292;DHT22;22327;51.208;6.418;2023-04-03T00:37:41;6.00;94.30
36292;DHT22;22327;51.208;6.418;2023-04-03T00:40:08;6.00;94.40
36292;DHT22;22327;51.208;6.418;2023-04-03T00:42:34;6.00;94.40
36292;DHT22;22327;51.208;6.418;2023-04-03T00:47:26;6.00;94.30
36292;DHT22;22327;51.208;6.418;2023-04-03T00:49:52;6.00;94.30
36292;DHT22;22327;51.208;6.418;2023-04-03T00:52:22;6.00;94.30
36292;DHT22;22327;51.208;6.418;2023-04-03T00:54:50;6.00;94.30
36292;DHT22;22327;51.208;6.418;2023-04-03T00:57:17;5.90;94.40
36292;DHT22;22327;51.208;6.418;2023-04-03T00:59:46;5.90;94.50
36292;DHT22;22327;51.208;6.418;2023-04-03T01:02:13;5.90;94.50
36292;DHT22;22327;51.208;6.418;2023-04-03T01:04:41;5.90;94.60
36292;DHT22;22327;51.208;6.418;2023-04-03T01:07:11;5.90;94.60
36292;DHT22;22327;51.208;6.418;2023-04-03T01:09:38;5.90;94.60
36292;DHT22;22327;51.208;6.418;2023-04-03T01:12:35;5.80;94.60
36292;DHT22;22327;51.208;6.418;2023-04-03T01:15:09;5.80;94.60
36292;DHT22;22327;51.208;6.418;2023-04-03T01:25:39;5.70;94.90
36292;DHT22;22327;51.208;6.418;2023-04-03T01:28:06;5.80;94.90
36292;DHT22;22327;51.208;6.418;2023-04-03T01:30:38;5.80;94.90
36292;DHT22;22327;51.208;6.418;2023-04-03T01:33:04;5.80;94.80
36292;DHT22;22327;51.208;6.418;2023-04-03T01:35:30;5.80;94.90
36292;DHT22;22327;51.208;6.418;2023-04-03T01:37:55;5.80;94.90
36292;DHT22;22327;51.208;6.418;2023-04-03T01:40:21;5.80;94.90
36292;DHT22;22327;51.208;6.418;2023-04-03T01:42:46;5.80;94.80
36292;DHT22;22327;51.208;6.418;2023-04-03T01:45:12;5.90;94.70
36292;DHT22;22327;51.208;6.418;2023-04-03T01:47:38;5.80;94.80
36292;DHT22;22327;51.208;6.418;2023-04-03T01:50:03;5.80;94.90
36292;DHT22;22327;51.208;6.418;2023-04-03T01:52:29;5.80;94.90
36292;DHT22;22327;51.208;6.418;2023-04-03T01:54:55;5.80;95.00
36292;DHT22;22327;51.208;6.418;2023-04-03T01:57:21;5.80;95.00
36292;DHT22;22327;51.208;6.418;2023-04-03T01:59:46;5.70;95.00
36292;DHT22;22327;51.208;6.418;2023-04-03T02:02:12;5.70;95.10
36292;DHT22;22327;51.208;6.418;2023-04-03T02:04:40;5.70;95.00
36292;DHT22;22327;51.208;6.418;2023-04-03T02:07:05;5.70;94.90
36292;DHT22;22327;51.208;6.418;2023-04-03T02:09:31;5.70;94.90
36292;DHT22;22327;51.208;6.418;2023-04-03T02:11:56;5.60;95.10
36292;DHT22;22327;51.208;6.418;2023-04-03T02:14:22;5.50;95.30
36292;DHT22;22327;51.208;6.418;2023-04-03T02:16:49;5.50;95.40
36292;DHT22;22327;51.208;6.418;2023-04-03T02:19:14;5.50;95.50
36292;DHT22;22327;51.208;6.418;2023-04-03T02:21:40;5.40;95.60
36292;DHT22;22327;51.208;6.418;2023-04-03T02:24:06;5.40;95.80
36292;DHT22;22327;51.208;6.418;2023-04-03T02:26:31;5.40;95.90
36292;DHT22;22327;51.208;6.418;2023-04-03T02:28:57;5.30;96.20
36292;DHT22;22327;51.208;6.418;2023-04-03T02:31:22;5.20;96.40
36292;DHT22;22327;51.208;6.418;2023-04-03T02:33:49;5.20;96.50
36292;DHT22;22327;51.208;6.418;2023-04-03T02:36:15;5.20;96.70
36292;DHT22;22327;51.208;6.418;2023-04-03T02:38:41;5.20;96.80
36292;DHT22;22327;51.208;6.418;2023-04-03T02:41:09;5.10;96.90
36292;DHT22;22327;51.208;6.418;2023-04-03T02:43:35;5.20;97.00
36292;DHT22;22327;51.208;6.418;2023-04-03T02:46:01;5.10;96.90
36292;DHT22;22327;51.208;6.418;2023-04-03T02:48:26;5.20;97.20
36292;DHT22;22327;51.208;6.418;2023-04-03T02:50:52;5.10;97.30
36292;DHT22;22327;51.208;6.418;2023-04-03T02:53:18;5.10;97.30
36292;DHT22;22327;51.208;6.418;2023-04-03T02:55:44;5.10;97.50
36292;DHT22;22327;51.208;6.418;2023-04-03T02:58:10;5.10;97.50
36292;DHT22;22327;51.208;6.418;2023-04-03T03:00:36;5.10;97.60
36292;DHT22;22327;51.208;6.418;2023-04-03T03:03:02;5.00;97.70
36292;DHT22;22327;51.208;6.418;2023-04-03T03:05:28;5.10;97.80
36292;DHT22;22327;51.208;6.418;2023-04-03T03:07:54;5.00;97.90
36292;DHT22;22327;51.208;6.418;2023-04-03T03:10:21;5.00;97.90
36292;DHT22;22327;51.208;6.418;2023-04-03T03:12:46;5.00;97.90
36292;DHT22;22327;51.208;6.418;2023-04-03T03:15:12;5.00;98.00
36292;DHT22;22327;51.208;6.418;2023-04-03T03:17:37;5.00;98.00
36292;DHT22;22327;51.208;6.418;2023-04-03T03:20:04;5.00;98.10
36292;DHT22;22327;51.208;6.418;2023-04-03T03:22:30;5.00;98.00
36292;DHT22;22327;51.208;6.418;2023-04-03T03:24:56;5.00;98.10
36292;DHT22;22327;51.208;6.418;2023-04-03T03:27:21;5.00;98.10
36292;DHT22;22327;51.208;6.418;2023-04-03T03:29:47;5.00;98.00
36292;DHT22;22327;51.208;6.418;2023-04-03T03:32:13;5.00;98.00
36292;DHT22;22327;51.208;6.418;2023-04-03T03:34:38;5.00;98.00
36292;DHT22;22327;51.208;6.418;2023-04-03T03:37:04;5.00;97.90
36292;DHT22;22327;51.208;6.418;2023-04-03T03:39:29;5.00;97.80
36292;DHT22;22327;51.208;6.418;2023-04-03T03:41:55;5.00;97.80
36292;DHT22;22327;51.208;6.418;2023-04-03T03:44:21;5.00;97.80
36292;DHT22;22327;51.208;6.418;2023-04-03T03:46:46;5.00;97.80
36292;DHT22;22327;51.208;6.418;2023-04-03T03:49:12;5.00;97.70
36292;DHT22;22327;51.208;6.418;2023-04-03T03:51:39;5.00;97.20
36292;DHT22;22327;51.208;6.418;2023-04-03T03:54:05;5.00;97.60
36292;DHT22;22327;51.208;6.418;2023-04-03T03:56:31;5.00;97.50
36292;DHT22;22327;51.208;6.418;2023-04-03T03:58:56;4.90;97.50
36292;DHT22;22327;51.208;6.418;2023-04-03T04:01:23;5.00;97.50
36292;DHT22;22327;51.208;6.418;2023-04-03T04:03:50;4.90;97.40
36292;DHT22;22327;51.208;6.418;2023-04-03T04:06:16;5.00;97.50
36292;DHT22;22327;51.208;6.418;2023-04-03T04:08:42;4.90;97.50
36292;DHT22;22327;51.208;6.418;2023-04-03T04:11:07;4.90;97.50
36292;DHT22;22327;51.208;6.418;2023-04-03T04:13:33;5.00;97.30
36292;DHT22;22327;51.208;6.418;2023-04-03T04:15:59;4.90;97.30
36292;DHT22;22327;51.208;6.418;2023-04-03T04:18:24;4.90;97.30
36292;DHT22;22327;51.208;6.418;2023-04-03T04:20:50;4.90;97.30
36292;DHT22;22327;51.208;6.418;2023-04-03T04:23:16;4.90;97.20
36292;DHT22;22327;51.208;6.418;2023-04-03T04:25:48;4.80;97.20
36292;DHT22;22327;51.208;6.418;2023-04-03T04:28:13;4.80;97.30
36292;DHT22;22327;51.208;6.418;2023-04-03T04:30:39;4.80;97.40
36292;DHT22;22327;51.208;6.418;2023-04-03T04:33:05;4.80;97.30
36292;DHT22;22327;51.208;6.418;2023-04-03T04:35:30;4.80;97.30
36292;DHT22;22327;51.208;6.418;2023-04-03T04:37:56;4.80;97.30
36292;DHT22;22327;51.208;6.418;2023-04-03T04:40:22;4.80;97.20
36292;DHT22;22327;51.208;6.418;2023-04-03T04:42:47;4.80;97.20
36292;DHT22;22327;51.208;6.418;2023-04-03T04:45:13;4.70;97.20
36292;DHT22;22327;51.208;6.418;2023-04-03T04:47:40;4.70;97.30
36292;DHT22;22327;51.208;6.418;2023-04-03T04:50:06;4.70;97.20
36292;DHT22;22327;51.208;6.418;2023-04-03T04:52:31;4.70;97.20
36292;DHT22;22327;51.208;6.418;2023-04-03T04:54:57;4.70;97.30
36292;DHT22;22327;51.208;6.418;2023-04-03T04:57:22;4.70;97.20
36292;DHT22;22327;51.208;6.418;2023-04-03T04:59:48;4.70;97.30
36292;DHT22;22327;51.208;6.418;2023-04-03T05:02:13;4.70;97.30
36292;DHT22;22327;51.208;6.418;2023-04-03T05:04:39;4.70;97.40
36292;DHT22;22327;51.208;6.418;2023-04-03T05:07:05;4.60;97.30
36292;DHT22;22327;51.208;6.418;2023-04-03T05:09:30;4.60;97.40
36292;DHT22;22327;51.208;6.418;2023-04-03T05:11:56;4.50;97.50
36292;DHT22;22327;51.208;6.418;2023-04-03T05:14:22;4.50;97.70
36292;DHT22;22327;51.208;6.418;2023-04-03T05:16:47;4.50;97.70
36292;DHT22;22327;51.208;6.418;2023-04-03T05:19:13;4.50;97.60
36292;DHT22;22327;51.208;6.418;2023-04-03T05:21:39;4.50;97.70
36292;DHT22;22327;51.208;6.418;2023-04-03T05:24:05;4.50;97.70
36292;DHT22;22327;51.208;6.418;2023-04-03T05:26:34;4.60;97.70
36292;DHT22;22327;51.208;6.418;2023-04-03T05:29:00;4.60;97.60
36292;DHT22;22327;51.208;6.418;2023-04-03T05:31:26;4.60;97.70
36292;DHT22;22327;51.208;6.418;2023-04-03T05:33:54;4.70;97.80
36292;DHT22;22327;51.208;6.418;2023-04-03T05:36:20;5.00;97.70
36292;DHT22;22327;51.208;6.418;2023-04-03T05:38:46;5.20;96.90
36292;DHT22;22327;51.208;6.418;2023-04-03T05:41:11;5.30;96.50
36292;DHT22;22327;51.208;6.418;2023-04-03T05:43:37;5.40;96.30
36292;DHT22;22327;51.208;6.418;2023-04-03T05:46:07;5.60;97.00
36292;DHT22;22327;51.208;6.418;2023-04-03T05:48:33;6.00;95.80
36292;DHT22;22327;51.208;6.418;2023-04-03T05:50:59;6.50;94.80
36292;DHT22;22327;51.208;6.418;2023-04-03T05:53:28;6.90;94.70
36292;DHT22;22327;51.208;6.418;2023-04-03T05:55:54;7.30;93.90
36292;DHT22;22327;51.208;6.418;2023-04-03T05:58:20;7.60;92.90
36292;DHT22;22327;51.208;6.418;2023-04-03T06:00:45;7.80;92.50
36292;DHT22;22327;51.208;6.418;2023-04-03T06:03:12;8.10;92.90
36292;DHT22;22327;51.208;6.418;2023-04-03T06:05:37;8.50;91.50
36292;DHT22;22327;51.208;6.418;2023-04-03T06:08:03;8.70;90.70
36292;DHT22;22327;51.208;6.418;2023-04-03T06:10:29;9.10;90.40
36292;DHT22;22327;51.208;6.418;2023-04-03T06:12:54;9.40;90.10
36292;DHT22;22327;51.208;6.418;2023-04-03T06:15:20;9.60;86.90
36292;DHT22;22327;51.208;6.418;2023-04-03T06:17:46;9.50;86.30
36292;DHT22;22327;51.208;6.418;2023-04-03T06:20:12;9.50;87.00
36292;DHT22;22327;51.208;6.418;2023-04-03T06:22:37;9.50;85.70
36292;DHT22;22327;51.208;6.418;2023-04-03T06:25:03;9.70;86.50
36292;DHT22;22327;51.208;6.418;2023-04-03T06:27:30;9.90;85.60
36292;DHT22;22327;51.208;6.418;2023-04-03T06:29:55;10.20;82.60
36292;DHT22;22327;51.208;6.418;2023-04-03T06:32:21;10.50;82.10
36292;DHT22;22327;51.208;6.418;2023-04-03T06:34:47;10.90;81.50
36292;DHT22;22327;51.208;6.418;2023-04-03T06:37:16;11.40;77.40
36292;DHT22;22327;51.208;6.418;2023-04-03T06:39:42;11.60;75.30
36292;DHT22;22327;51.208;6.418;2023-04-03T06:42:08;11.80;76.70
36292;DHT22;22327;51.208;6.418;2023-04-03T06:44:34;12.10;75.80
36292;DHT22;22327;51.208;6.418;2023-04-03T06:47:00;12.70;76.70
36292;DHT22;22327;51.208;6.418;2023-04-03T06:49:26;13.20;71.60
36292;DHT22;22327;51.208;6.418;2023-04-03T06:51:51;13.60;69.50
36292;DHT22;22327;51.208;6.418;2023-04-03T06:54:17;14.00;69.10
36292;DHT22;22327;51.208;6.418;2023-04-03T06:56:43;14.20;64.50
36292;DHT22;22327;51.208;6.418;2023-04-03T06:59:11;14.40;64.80
36292;DHT22;22327;51.208;6.418;2023-04-03T07:01:37;14.50;64.40
36292;DHT22;22327;51.208;6.418;2023-04-03T07:04:02;14.60;64.40
36292;DHT22;22327;51.208;6.418;2023-04-03T07:06:28;14.60;61.10
36292;DHT22;22327;51.208;6.418;2023-04-03T07:08:54;14.60;61.80
36292;DHT22;22327;51.208;6.418;2023-04-03T07:11:19;14.70;62.70
36292;DHT22;22327;51.208;6.418;2023-04-03T07:13:45;14.60;59.20
36292;DHT22;22327;51.208;6.418;2023-04-03T07:16:11;14.00;58.40
36292;DHT22;22327;51.208;6.418;2023-04-03T07:18:36;13.40;60.50
36292;DHT22;22327;51.208;6.418;2023-04-03T07:21:02;13.10;64.00
36292;DHT22;22327;51.208;6.418;2023-04-03T07:23:28;13.30;64.40
36292;DHT22;22327;51.208;6.418;2023-04-03T07:25:54;13.30;61.70
36292;DHT22;22327;51.208;6.418;2023-04-03T07:28:21;13.30;62.80
36292;DHT22;22327;51.208;6.418;2023-04-03T07:31:00;13.30;62.90
36292;DHT22;22327;51.208;6.418;2023-04-03T07:33:26;13.50;64.00
36292;DHT22;22327;51.208;6.418;2023-04-03T07:35:52;13.80;60.70
36292;DHT22;22327;51.208;6.418;2023-04-03T07:38:18;14.10;60.70
36292;DHT22;22327;51.208;6.418;2023-04-03T07:40:47;14.30;59.70
36292;DHT22;22327;51.208;6.418;2023-04-03T07:43:14;14.80;58.80
36292;DHT22;22327;51.208;6.418;2023-04-03T07:45:40;15.10;58.60
36292;DHT22;22327;51.208;6.418;2023-04-03T07:48:06;15.40;56.90
36292;DHT22;22327;51.208;6.418;2023-04-03T07:50:32;15.80;56.40
36292;DHT22;22327;51.208;6.418;2023-04-03T07:52:58;15.70;53.60
36292;DHT22;22327;51.208;6.418;2023-04-03T07:55:24;15.60;55.00
36292;DHT22;22327;51.208;6.418;2023-04-03T07:57:50;15.70;54.40
36292;DHT22;22327;51.208;6.418;2023-04-03T08:00:16;15.70;55.40
36292;DHT22;22327;51.208;6.418;2023-04-03T08:02:43;15.80;52.30
36292;DHT22;22327;51.208;6.418;2023-04-03T08:05:10;15.90;53.20
36292;DHT22;22327;51.208;6.418;2023-04-03T08:07:37;16.00;51.40
36292;DHT22;22327;51.208;6.418;2023-04-03T08:10:03;16.10;51.20
36292;DHT22;22327;51.208;6.418;2023-04-03T08:12:29;16.30;49.00
36292;DHT22;22327;51.208;6.418;2023-04-03T08:14:55;16.40;50.00
36292;DHT22;22327;51.208;6.418;2023-04-03T08:17:21;16.50;47.50
36292;DHT22;22327;51.208;6.418;2023-04-03T08:19:47;16.70;47.90
36292;DHT22;22327;51.208;6.418;2023-04-03T08:22:12;17.10;47.60
36292;DHT22;22327;51.208;6.418;2023-04-03T08:24:38;17.60;46.60
36292;DHT22;22327;51.208;6.418;2023-04-03T08:27:03;18.40;44.20
36292;DHT22;22327;51.208;6.418;2023-04-03T08:29:29;18.20;42.40
36292;DHT22;22327;51.208;6.418;2023-04-03T08:31:55;18.00;41.10
36292;DHT22;22327;51.208;6.418;2023-04-03T08:34:21;17.80;41.70
36292;DHT22;22327;51.208;6.418;2023-04-03T08:36:46;17.20;39.80
36292;DHT22;22327;51.208;6.418;2023-04-03T08:39:12;17.20;41.80
36292;DHT22;22327;51.208;6.418;2023-04-03T08:41:43;17.10;41.20
36292;DHT22;22327;51.208;6.418;2023-04-03T08:44:14;17.10;41.60
36292;DHT22;22327;51.208;6.418;2023-04-03T08:49:41;17.80;38.60
36292;DHT22;22327;51.208;6.418;2023-04-03T08:52:17;17.80;39.90
36292;DHT22;22327;51.208;6.418;2023-04-03T08:54:52;18.20;38.10
36292;DHT22;22327;51.208;6.418;2023-04-03T08:57:43;18.60;36.60
36292;DHT22;22327;51.208;6.418;2023-04-03T09:00:22;18.50;34.90
36292;DHT22;22327;51.208;6.418;2023-04-03T09:02:51;18.40;34.80
36292;DHT22;22327;51.208;6.418;2023-04-03T09:05:19;18.60;35.80
36292;DHT22;22327;51.208;6.418;2023-04-03T09:07:47;19.00;36.80
36292;DHT22;22327;51.208;6.418;2023-04-03T09:10:18;19.40;32.10
36292;DHT22;22327;51.208;6.418;2023-04-03T09:12:49;19.40;32.50
36292;DHT22;22327;51.208;6.418;2023-04-03T09:15:24;19.70;32.40
36292;DHT22;22327;51.208;6.418;2023-04-03T09:18:04;19.70;32.10
36292;DHT22;22327;51.208;6.418;2023-04-03T09:23:28;19.50;29.50
36292;DHT22;22327;51.208;6.418;2023-04-03T09:26:02;19.30;30.10
36292;DHT22;22327;51.208;6.418;2023-04-03T09:28:33;19.30;31.30
36292;DHT22;22327;51.208;6.418;2023-04-03T09:31:01;19.30;29.80
36292;DHT22;22327;51.208;6.418;2023-04-03T09:33:28;19.30;30.20
36292;DHT22;22327;51.208;6.418;2023-04-03T09:35:55;19.20;28.90
36292;DHT22;22327;51.208;6.418;2023-04-03T09:38:22;18.60;29.10
36292;DHT22;22327;51.208;6.418;2023-04-03T09:43:29;18.20;30.10
36292;DHT22;22327;51.208;6.418;2023-04-03T09:45:56;18.30;30.80
36292;DHT22;22327;51.208;6.418;2023-04-03T09:48:50;18.40;29.50
36292;DHT22;22327;51.208;6.418;2023-04-03T09:51:16;18.20;29.30
36292;DHT22;22327;51.208;6.418;2023-04-03T09:53:44;17.60;29.40
36292;DHT22;22327;51.208;6.418;2023-04-03T09:58:43;15.70;30.10
36292;DHT22;22327;51.208;6.418;2023-04-03T10:01:26;15.00;32.80
36292;DHT22;22327;51.208;6.418;2023-04-03T10:06:33;13.30;36.00
36292;DHT22;22327;51.208;6.418;2023-04-03T10:12:09;12.30;38.40
36292;DHT22;22327;51.208;6.418;2023-04-03T10:14:58;12.00;38.80
36292;DHT22;22327;51.208;6.418;2023-04-03T10:17:39;11.80;39.70
36292;DHT22;22327;51.208;6.418;2023-04-03T10:20:26;11.70;40.80
36292;DHT22;22327;51.208;6.418;2023-04-03T10:26:02;11.30;41.50
36292;DHT22;22327;51.208;6.418;2023-04-03T10:29:03;11.10;42.30
36292;DHT22;22327;51.208;6.418;2023-04-03T10:31:59;10.90;42.50
36292;DHT22;22327;51.208;6.418;2023-04-03T10:34:35;10.80;43.10
36292;DHT22;22327;51.208;6.418;2023-04-03T10:45:29;10.40;44.10
36292;DHT22;22327;51.208;6.418;2023-04-03T10:55:57;10.70;44.60
36292;DHT22;22327;51.208;6.418;2023-04-03T10:58:31;10.70;44.20
36292;DHT22;22327;51.208;6.418;2023-04-03T11:01:06;10.80;44.80
36292;DHT22;22327;51.208;6.418;2023-04-03T11:03:36;10.80;44.30
36292;DHT22;22327;51.208;6.418;2023-04-03T11:06:08;10.90;44.90
36292;DHT22;22327;51.208;6.418;2023-04-03T11:08:41;10.90;44.50
36292;DHT22;22327;51.208;6.418;2023-04-03T11:11:30;10.80;44.40
36292;DHT22;22327;51.208;6.418;2023-04-03T11:16:30;10.90;44.50
36292;DHT22;22327;51.208;6.418;2023-04-03T11:21:51;10.90;45.20
36292;DHT22;22327;51.208;6.418;2023-04-03T11:24:25;10.80;45.20
36292;DHT22;22327;51.208;6.418;2023-04-03T11:26:53;10.80;45.90
36292;DHT22;22327;51.208;6.418;2023-04-03T11:29:23;10.90;46.00
36292;DHT22;22327;51.208;6.418;2023-04-03T11:34:53;11.00;46.40
36292;DHT22;22327;51.208;6.418;2023-04-03T11:37:41;11.00;47.00
36292;DHT22;22327;51.208;6.418;2023-04-03T11:42:42;11.20;47.50
36292;DHT22;22327;51.208;6.418;2023-04-03T11:47:57;11.30;46.90
36292;DHT22;22327;51.208;6.418;2023-04-03T11:50:42;11.30;46.60
36292;DHT22;22327;51.208;6.418;2023-04-03T12:05:54;11.40;46.50
36292;DHT22;22327;51.208;6.418;2023-04-03T12:16:21;11.40;45.30
36292;DHT22;22327;51.208;6.418;2023-04-03T12:21:20;11.40;44.00
36292;DHT22;22327;51.208;6.418;2023-04-03T12:30:00;11.50;45.00
36292;DHT22;22327;51.208;6.418;2023-04-03T12:32:47;11.60;45.10
36292;DHT22;22327;51.208;6.418;2023-04-03T12:35:34;11.60;45.20
36292;DHT22;22327;51.208;6.418;2023-04-03T12:38:33;11.70;45.40
36292;DHT22;22327;51.208;6.418;2023-04-03T12:41:16;11.70;45.00
36292;DHT22;22327;51.208;6.418;2023-04-03T12:44:06;11.70;45.40
36292;DHT22;22327;51.208;6.418;2023-04-03T12:46:43;11.70;46.50
36292;DHT22;22327;51.208;6.418;2023-04-03T12:52:03;11.80;46.10
36292;DHT22;22327;51.208;6.418;2023-04-03T12:54:36;11.80;44.20
36292;DHT22;22327;51.208;6.418;2023-04-03T12:57:16;11.70;44.70
36292;DHT22;22327;51.208;6.418;2023-04-03T12:59:42;11.70;43.80
36292;DHT22;22327;51.208;6.418;2023-04-03T13:04:46;11.70;45.80
36292;DHT22;22327;51.208;6.418;2023-04-03T13:07:35;11.80;46.60
36292;DHT22;22327;51.208;6.418;2023-04-03T13:10:23;11.90;45.10
36292;DHT22;22327;51.208;6.418;2023-04-03T13:12:54;12.00;46.00
36292;DHT22;22327;51.208;6.418;2023-04-03T13:15:27;11.90;44.50
36292;DHT22;22327;51.208;6.418;2023-04-03T13:17:54;11.90;44.30
36292;DHT22;22327;51.208;6.418;2023-04-03T13:25:17;11.90;43.90
36292;DHT22;22327;51.208;6.418;2023-04-03T13:27:45;11.90;44.20
36292;DHT22;22327;51.208;6.418;2023-04-03T13:30:29;11.90;44.00
36292;DHT22;22327;51.208;6.418;2023-04-03T13:32:56;11.90;43.50
36292;DHT22;22327;51.208;6.418;2023-04-03T13:35:32;11.90;43.30
36292;DHT22;22327;51.208;6.418;2023-04-03T13:38:05;12.00;42.60
36292;DHT22;22327;51.208;6.418;2023-04-03T13:40:31;12.00;43.40
36292;DHT22;22327;51.208;6.418;2023-04-03T13:43:22;12.00;43.60
36292;DHT22;22327;51.208;6.418;2023-04-03T13:46:45;12.00;42.60
36292;DHT22;22327;51.208;6.418;2023-04-03T13:48:54;11.90;43.00
36292;DHT22;22327;51.208;6.418;2023-04-03T13:51:24;11.90;43.40
36292;DHT22;22327;51.208;6.418;2023-04-03T13:53:56;12.00;43.80
36292;DHT22;22327;51.208;6.418;2023-04-03T13:58:58;12.10;43.20
36292;DHT22;22327;51.208;6.418;2023-04-03T14:01:25;12.20;42.90
36292;DHT22;22327;51.208;6.418;2023-04-03T14:04:01;12.10;42.90
36292;DHT22;22327;51.208;6.418;2023-04-03T14:06:27;12.00;42.80
36292;DHT22;22327;51.208;6.418;2023-04-03T14:08:54;12.00;43.30
36292;DHT22;22327;51.208;6.418;2023-04-03T14:11:22;12.00;43.80
36292;DHT22;22327;51.208;6.418;2023-04-03T14:13:50;12.00;43.80
36292;DHT22;22327;51.208;6.418;2023-04-03T14:16:19;12.00;43.30
36292;DHT22;22327;51.208;6.418;2023-04-03T14:18:46;11.90;42.90
36292;DHT22;22327;51.208;6.418;2023-04-03T14:21:14;11.90;43.20
36292;DHT22;22327;51.208;6.418;2023-04-03T14:23:40;11.90;44.40
36292;DHT22;22327;51.208;6.418;2023-04-03T14:26:14;11.90;43.80
36292;DHT22;22327;51.208;6.418;2023-04-03T14:28:42;12.00;44.10
36292;DHT22;22327;51.208;6.418;2023-04-03T14:31:10;12.00;44.90
36292;DHT22;22327;51.208;6.418;2023-04-03T14:33:37;12.10;44.10
36292;DHT22;22327;51.208;6.418;2023-04-03T14:38:37;12.10;44.10
36292;DHT22;22327;51.208;6.418;2023-04-03T14:41:03;12.10;44.30
36292;DHT22;22327;51.208;6.418;2023-04-03T14:43:28;12.20;45.00
36292;DHT22;22327;51.208;6.418;2023-04-03T14:45:54;12.10;44.00
36292;DHT22;22327;51.208;6.418;2023-04-03T14:48:23;12.00;43.60
36292;DHT22;22327;51.208;6.418;2023-04-03T14:50:50;11.90;44.10
36292;DHT22;22327;51.208;6.418;2023-04-03T14:53:17;11.90;45.10
36292;DHT22;22327;51.208;6.418;2023-04-03T14:55:46;12.00;45.00
36292;DHT22;22327;51.208;6.418;2023-04-03T14:58:13;12.00;44.80
36292;DHT22;22327;51.208;6.418;2023-04-03T15:00:40;12.00;44.80
36292;DHT22;22327;51.208;6.418;2023-04-03T15:03:05;12.00;44.80
36292;DHT22;22327;51.208;6.418;2023-04-03T15:05:31;12.00;45.20
36292;DHT22;22327;51.208;6.418;2023-04-03T15:07:58;12.00;44.90
36292;DHT22;22327;51.208;6.418;2023-04-03T15:10:28;12.10;45.00
36292;DHT22;22327;51.208;6.418;2023-04-03T15:12:54;12.10;44.90
36292;DHT22;22327;51.208;6.418;2023-04-03T15:15:20;12.10;44.60
36292;DHT22;22327;51.208;6.418;2023-04-03T15:17:51;12.10;44.50
36292;DHT22;22327;51.208;6.418;2023-04-03T15:20:21;12.00;45.00
36292;DHT22;22327;51.208;6.418;2023-04-03T15:22:46;12.00;44.20
36292;DHT22;22327;51.208;6.418;2023-04-03T15:25:12;11.90;44.10
36292;DHT22;22327;51.208;6.418;2023-04-03T15:27:38;11.90;44.90
36292;DHT22;22327;51.208;6.418;2023-04-03T15:30:06;11.90;44.60
36292;DHT22;22327;51.208;6.418;2023-04-03T15:32:33;11.80;44.60
36292;DHT22;22327;51.208;6.418;2023-04-03T15:34:59;11.80;44.50
36292;DHT22;22327;51.208;6.418;2023-04-03T15:37:25;11.80;44.50
36292;DHT22;22327;51.208;6.418;2023-04-03T15:39:51;11.80;45.10
36292;DHT22;22327;51.208;6.418;2023-04-03T15:42:16;11.80;44.60
36292;DHT22;22327;51.208;6.418;2023-04-03T15:44:42;11.70;44.90
36292;DHT22;22327;51.208;6.418;2023-04-03T15:47:07;11.70;45.40
36292;DHT22;22327;51.208;6.418;2023-04-03T15:49:33;11.70;45.30
36292;DHT22;22327;51.208;6.418;2023-04-03T15:51:59;11.80;45.70
36292;DHT22;22327;51.208;6.418;2023-04-03T15:54:25;11.80;45.40
36292;DHT22;22327;51.208;6.418;2023-04-03T15:56:52;11.90;45.60
36292;DHT22;22327;51.208;6.418;2023-04-03T15:59:18;11.90;44.30
36292;DHT22;22327;51.208;6.418;2023-04-03T16:01:44;11.70;43.80
36292;DHT22;22327;51.208;6.418;2023-04-03T16:04:10;11.60;44.20
36292;DHT22;22327;51.208;6.418;2023-04-03T16:06:36;11.60;44.90
36292;DHT22;22327;51.208;6.418;2023-04-03T16:09:03;11.70;45.40
36292;DHT22;22327;51.208;6.418;2023-04-03T16:11:29;11.60;45.60
36292;DHT22;22327;51.208;6.418;2023-04-03T16:13:55;11.60;46.30
36292;DHT22;22327;51.208;6.418;2023-04-03T16:16:22;11.60;45.70
36292;DHT22;22327;51.208;6.418;2023-04-03T16:18:49;11.50;46.10
36292;DHT22;22327;51.208;6.418;2023-04-03T16:21:16;11.60;46.50
36292;DHT22;22327;51.208;6.418;2023-04-03T16:23:42;11.50;45.80
36292;DHT22;22327;51.208;6.418;2023-04-03T16:26:08;11.50;45.60
36292;DHT22;22327;51.208;6.418;2023-04-03T16:28:34;11.50;46.20
36292;DHT22;22327;51.208;6.418;2023-04-03T16:31:00;11.40;45.60
36292;DHT22;22327;51.208;6.418;2023-04-03T16:33:26;11.30;45.50
36292;DHT22;22327;51.208;6.418;2023-04-03T16:35:52;11.30;45.60
36292;DHT22;22327;51.208;6.418;2023-04-03T16:38:18;11.20;46.00
36292;DHT22;22327;51.208;6.418;2023-04-03T16:40:44;11.30;46.50
36292;DHT22;22327;51.208;6.418;2023-04-03T16:43:10;11.30;46.70
36292;DHT22;22327;51.208;6.418;2023-04-03T16:45:36;11.40;47.70
36292;DHT22;22327;51.208;6.418;2023-04-03T16:48:02;11.30;46.20
36292;DHT22;22327;51.208;6.418;2023-04-03T16:50:27;11.30;45.90
36292;DHT22;22327;51.208;6.418;2023-04-03T16:52:53;11.30;46.00
36292;DHT22;22327;51.208;6.418;2023-04-03T16:55:18;11.20;46.60
36292;DHT22;22327;51.208;6.418;2023-04-03T16:57:46;11.00;46.70
36292;DHT22;22327;51.208;6.418;2023-04-03T17:00:12;11.00;47.20
36292;DHT22;22327;51.208;6.418;2023-04-03T17:02:38;11.00;46.90
36292;DHT22;22327;51.208;6.418;2023-04-03T17:05:04;10.90;46.80
36292;DHT22;22327;51.208;6.418;2023-04-03T17:07:30;10.90;47.10
36292;DHT22;22327;51.208;6.418;2023-04-03T17:09:55;10.90;47.40
36292;DHT22;22327;51.208;6.418;2023-04-03T17:12:21;10.80;47.60
36292;DHT22;22327;51.208;6.418;2023-04-03T17:14:46;10.70;47.90
36292;DHT22;22327;51.208;6.418;2023-04-03T17:17:13;10.60;48.20
36292;DHT22;22327;51.208;6.418;2023-04-03T17:19:41;10.60;48.30
36292;DHT22;22327;51.208;6.418;2023-04-03T17:22:08;10.60;48.50
36292;DHT22;22327;51.208;6.418;2023-04-03T17:24:35;10.60;48.60
36292;DHT22;22327;51.208;6.418;2023-04-03T17:27:01;10.50;48.90
36292;DHT22;22327;51.208;6.418;2023-04-03T17:29:27;10.50;49.30